sensor_id;sensor_type;location;lat;lon;timestamp;temperature;humidity
22185;DHT22;11258;52.516;13.318;2022-08-19T00:01:53;23.70;99.90
22185;DHT22;11258;52.516;13.318;2022-08-19T00:04:22;23.50;99.90
22185;DHT22;11258;52.516;13.318;2022-08-19T00:06:47;23.50;99.90
22185;DHT22;11258;52.516;13.318;2022-08-19T00:09:16;23.50;99.90
22185;DHT22;11258;52.516;13.318;2022-08-19T00:11:43;23.50;99.90
22185;DHT22;11258;52.516;13.318;2022-08-19T00:14:11;23.50;99.90
22185;DHT22;11258;52.516;13.318;2022-08-19T00:16:39;23.50;99.90
22185;DHT22;11258;52.516;13.318;2022-08-19T00:19:07;23.50;99.90
22185;DHT22;11258;52.516;13.318;2022-08-19T00:21:33;23.50;99.90
22185;DHT22;11258;52.516;13.318;2022-08-19T00:24:06;23.60;99.90
22185;DHT22;11258;52.516;13.318;2022-08-19T00:26:32;23.60;99.90
22185;DHT22;11258;52.516;13.318;2022-08-19T00:28:58;23.50;99.90
22185;DHT22;11258;52.516;13.318;2022-08-19T00:31:25;23.60;99.90
22185;DHT22;11258;52.516;13.318;2022-08-19T00:33:50;23.60;99.90
22185;DHT22;11258;52.516;13.318;2022-08-19T00:36:16;23.60;99.90
22185;DHT22;11258;52.516;13.318;2022-08-19T00:38:42;23.60;99.90
22185;DHT22;11258;52.516;13.318;2022-08-19T00:41:11;23.50;99.90
22185;DHT22;11258;52.516;13.318;2022-08-19T00:43:37;23.50;99.90
22185;DHT22;11258;52.516;13.318;2022-08-19T00:46:04;23.50;99.90
22185;DHT22;11258;52.516;13.318;2022-08-19T00:48:30;23.50;99.90
22185;DHT22;11258;52.516;13.318;2022-08-19T00:50:57;23.60;99.90
22185;DHT22;11258;52.516;13.318;2022-08-19T00:53:26;23.60;99.90
22185;DHT22;11258;52.516;13.318;2022-08-19T00:55:55;23.50;99.90
22185;DHT22;11258;52.516;13.318;2022-08-19T00:58:24;23.60;99.90
22185;DHT22;11258;52.516;13.318;2022-08-19T01:00:52;23.50;99.90
22185;DHT22;11258;52.516;13.318;2022-08-19T01:03:20;23.50;99.90
22185;DHT22;11258;52.516;13.318;2022-08-19T01:05:48;23.40;99.90
22185;DHT22;11258;52.516;13.318;2022-08-19T01:08:16;23.40;99.90
22185;DHT22;11258;52.516;13.318;2022-08-19T01:10:45;23.40;99.90
22185;DHT22;11258;52.516;13.318;2022-08-19T01:13:15;23.50;99.90
22185;DHT22;11258;52.516;13.318;2022-08-19T01:15:48;23.40;99.90
22185;DHT22;11258;52.516;13.318;2022-08-19T01:18:16;23.40;99.90
22185;DHT22;11258;52.516;13.318;2022-08-19T01:20:43;23.40;99.90
22185;DHT22;11258;52.516;13.318;2022-08-19T01:23:09;23.40;99.90
22185;DHT22;11258;52.516;13.318;2022-08-19T01:25:41;23.40;99.90
22185;DHT22;11258;52.516;13.318;2022-08-19T01:30:43;23.30;99.90
22185;DHT22;11258;52.516;13.318;2022-08-19T01:33:09;23.30;99.90
22185;DHT22;11258;52.516;13.318;2022-08-19T01:35:35;23.20;99.90
22185;DHT22;11258;52.516;13.318;2022-08-19T01:38:04;23.20;99.90
22185;DHT22;11258;52.516;13.318;2022-08-19T01:40:37;23.20;99.90
22185;DHT22;11258;52.516;13.318;2022-08-19T01:43:04;23.20;99.90
22185;DHT22;11258;52.516;13.318;2022-08-19T01:45:33;23.20;99.90
22185;DHT22;11258;52.516;13.318;2022-08-19T01:48:00;23.20;99.90
22185;DHT22;11258;52.516;13.318;2022-08-19T01:50:26;23.20;99.90
22185;DHT22;11258;52.516;13.318;2022-08-19T01:52:53;23.20;99.90
22185;DHT22;11258;52.516;13.318;2022-08-19T01:55:20;23.10;99.90
22185;DHT22;11258;52.516;13.318;2022-08-19T01:57:50;23.00;99.90
22185;DHT22;11258;52.516;13.318;2022-08-19T02:00:19;22.90;99.90
22185;DHT22;11258;52.516;13.318;2022-08-19T02:02:45;22.90;99.90
22185;DHT22;11258;52.516;13.318;2022-08-19T02:05:11;23.00;99.90
22185;DHT22;11258;52.516;13.318;2022-08-19T02:07:38;22.90;99.90
22185;DHT22;11258;52.516;13.318;2022-08-19T02:10:10;22.90;99.90
22185;DHT22;11258;52.516;13.318;2022-08-19T02:12:36;22.80;99.90
22185;DHT22;11258;52.516;13.318;2022-08-19T02:15:03;22.90;99.90
22185;DHT22;11258;52.516;13.318;2022-08-19T02:17:29;22.90;99.90
22185;DHT22;11258;52.516;13.318;2022-08-19T02:19:58;22.80;99.90
22185;DHT22;11258;52.516;13.318;2022-08-19T02:22:24;22.80;99.90
22185;DHT22;11258;52.516;13.318;2022-08-19T02:24:54;22.80;99.90
22185;DHT22;11258;52.516;13.318;2022-08-19T02:27:21;22.80;99.90
22185;DHT22;11258;52.516;13.318;2022-08-19T02:29:47;22.60;99.90
22185;DHT22;11258;52.516;13.318;2022-08-19T02:32:14;22.60;99.90
22185;DHT22;11258;52.516;13.318;2022-08-19T02:34:40;22.50;99.90
22185;DHT22;11258;52.516;13.318;2022-08-19T02:37:06;22.40;99.90
22185;DHT22;11258;52.516;13.318;2022-08-19T02:39:52;22.30;99.90
22185;DHT22;11258;52.516;13.318;2022-08-19T02:42:17;22.30;99.90
22185;DHT22;11258;52.516;13.318;2022-08-19T02:44:43;22.30;99.90
22185;DHT22;11258;52.516;13.318;2022-08-19T02:47:09;22.30;99.90
22185;DHT22;11258;52.516;13.318;2022-08-19T02:49:35;22.30;99.90
22185;DHT22;11258;52.516;13.318;2022-08-19T02:52:01;22.30;99.90
22185;DHT22;11258;52.516;13.318;2022-08-19T02:54:26;22.40;99.90
22185;DHT22;11258;52.516;13.318;2022-08-19T02:56:53;22.40;99.90
22185;DHT22;11258;52.516;13.318;2022-08-19T02:59:18;22.40;99.90
22185;DHT22;11258;52.516;13.318;2022-08-19T03:01:45;22.40;99.90
22185;DHT22;11258;52.516;13.318;2022-08-19T03:04:13;22.40;99.90
22185;DHT22;11258;52.516;13.318;2022-08-19T03:06:42;22.40;99.90
22185;DHT22;11258;52.516;13.318;2022-08-19T03:09:09;22.40;99.90
22185;DHT22;11258;52.516;13.318;2022-08-19T03:11:35;22.30;99.90
22185;DHT22;11258;52.516;13.318;2022-08-19T03:14:01;22.20;99.90
22185;DHT22;11258;52.516;13.318;2022-08-19T03:16:31;22.30;99.90
22185;DHT22;11258;52.516;13.318;2022-08-19T03:18:57;22.20;99.90
22185;DHT22;11258;52.516;13.318;2022-08-19T03:21:28;22.20;99.90
22185;DHT22;11258;52.516;13.318;2022-08-19T03:23:54;22.20;99.90
22185;DHT22;11258;52.516;13.318;2022-08-19T03:26:20;22.20;99.90
22185;DHT22;11258;52.516;13.318;2022-08-19T03:28:45;22.20;99.90
22185;DHT22;11258;52.516;13.318;2022-08-19T03:31:16;22.20;99.90
22185;DHT22;11258;52.516;13.318;2022-08-19T03:33:43;22.20;99.90
22185;DHT22;11258;52.516;13.318;2022-08-19T03:36:15;22.10;99.90
22185;DHT22;11258;52.516;13.318;2022-08-19T03:38:47;22.10;99.90
22185;DHT22;11258;52.516;13.318;2022-08-19T03:41:36;22.10;99.90
22185;DHT22;11258;52.516;13.318;2022-08-19T03:44:03;22.20;99.90
22185;DHT22;11258;52.516;13.318;2022-08-19T03:46:31;22.10;99.90
22185;DHT22;11258;52.516;13.318;2022-08-19T03:48:59;22.10;99.90
22185;DHT22;11258;52.516;13.318;2022-08-19T03:53:52;22.10;99.90
22185;DHT22;11258;52.516;13.318;2022-08-19T03:56:17;22.00;99.90
22185;DHT22;11258;52.516;13.318;2022-08-19T03:58:44;22.00;99.90
22185;DHT22;11258;52.516;13.318;2022-08-19T04:01:12;22.00;99.90
22185;DHT22;11258;52.516;13.318;2022-08-19T04:03:39;22.00;99.90
22185;DHT22;11258;52.516;13.318;2022-08-19T04:08:41;22.00;99.90
22185;DHT22;11258;52.516;13.318;2022-08-19T04:11:09;22.00;99.90
22185;DHT22;11258;52.516;13.318;2022-08-19T04:13:35;22.00;99.90
22185;DHT22;11258;52.516;13.318;2022-08-19T04:16:01;22.00;99.90
22185;DHT22;11258;52.516;13.318;2022-08-19T04:18:26;22.10;99.90
22185;DHT22;11258;52.516;13.318;2022-08-19T04:20:55;22.10;99.90
22185;DHT22;11258;52.516;13.318;2022-08-19T04:23:20;22.10;99.90
22185;DHT22;11258;52.516;13.318;2022-08-19T04:25:46;22.00;99.90
22185;DHT22;11258;52.516;13.318;2022-08-19T04:28:12;22.00;99.90
22185;DHT22;11258;52.516;13.318;2022-08-19T04:30:43;22.10;99.90
22185;DHT22;11258;52.516;13.318;2022-08-19T04:33:10;22.10;99.90
22185;DHT22;11258;52.516;13.318;2022-08-19T04:35:38;22.10;99.90
22185;DHT22;11258;52.516;13.318;2022-08-19T04:38:05;22.10;99.90
22185;DHT22;11258;52.516;13.318;2022-08-19T04:40:30;22.10;99.90
22185;DHT22;11258;52.516;13.318;2022-08-19T04:43:14;22.20;99.90
22185;DHT22;11258;52.516;13.318;2022-08-19T04:45:42;22.10;99.90
22185;DHT22;11258;52.516;13.318;2022-08-19T04:48:08;22.10;99.90
22185;DHT22;11258;52.516;13.318;2022-08-19T04:50:35;22.20;99.90
22185;DHT22;11258;52.516;13.318;2022-08-19T04:53:00;22.30;99.90
22185;DHT22;11258;52.516;13.318;2022-08-19T04:55:26;22.40;99.90
22185;DHT22;11258;52.516;13.318;2022-08-19T04:57:52;22.50;99.90
22185;DHT22;11258;52.516;13.318;2022-08-19T05:00:18;22.60;99.90
22185;DHT22;11258;52.516;13.318;2022-08-19T05:02:43;22.70;99.90
22185;DHT22;11258;52.516;13.318;2022-08-19T05:05:09;23.20;99.90
22185;DHT22;11258;52.516;13.318;2022-08-19T05:07:35;24.30;99.90
22185;DHT22;11258;52.516;13.318;2022-08-19T05:10:03;25.30;99.90
22185;DHT22;11258;52.516;13.318;2022-08-19T05:12:29;26.20;99.90
22185;DHT22;11258;52.516;13.318;2022-08-19T05:14:56;26.70;99.90
22185;DHT22;11258;52.516;13.318;2022-08-19T05:17:22;27.00;99.90
22185;DHT22;11258;52.516;13.318;2022-08-19T05:19:48;27.30;99.90
22185;DHT22;11258;52.516;13.318;2022-08-19T05:22:32;27.80;99.90
22185;DHT22;11258;52.516;13.318;2022-08-19T05:25:07;28.40;99.90
22185;DHT22;11258;52.516;13.318;2022-08-19T05:27:33;28.80;99.90
22185;DHT22;11258;52.516;13.318;2022-08-19T05:30:00;28.30;99.90
22185;DHT22;11258;52.516;13.318;2022-08-19T05:32:25;28.30;99.90
22185;DHT22;11258;52.516;13.318;2022-08-19T05:34:51;28.30;99.90
22185;DHT22;11258;52.516;13.318;2022-08-19T05:37:17;28.50;99.90
22185;DHT22;11258;52.516;13.318;2022-08-19T05:39:42;28.30;99.90
22185;DHT22;11258;52.516;13.318;2022-08-19T05:42:10;27.40;99.90
22185;DHT22;11258;52.516;13.318;2022-08-19T05:44:40;26.90;99.90
22185;DHT22;11258;52.516;13.318;2022-08-19T05:47:10;26.30;99.90
22185;DHT22;11258;52.516;13.318;2022-08-19T05:49:36;25.90;99.90
22185;DHT22;11258;52.516;13.318;2022-08-19T05:52:08;25.90;99.90
22185;DHT22;11258;52.516;13.318;2022-08-19T05:54:37;25.80;99.90
22185;DHT22;11258;52.516;13.318;2022-08-19T05:57:05;25.60;99.90
22185;DHT22;11258;52.516;13.318;2022-08-19T05:59:31;25.70;99.90
22185;DHT22;11258;52.516;13.318;2022-08-19T06:01:56;25.70;99.90
22185;DHT22;11258;52.516;13.318;2022-08-19T06:04:23;25.90;99.90
22185;DHT22;11258;52.516;13.318;2022-08-19T06:06:50;26.00;99.90
22185;DHT22;11258;52.516;13.318;2022-08-19T06:09:17;25.80;99.90
22185;DHT22;11258;52.516;13.318;2022-08-19T06:11:53;25.50;99.90
22185;DHT22;11258;52.516;13.318;2022-08-19T06:14:22;25.30;99.90
22185;DHT22;11258;52.516;13.318;2022-08-19T06:16:49;25.20;99.90
22185;DHT22;11258;52.516;13.318;2022-08-19T06:19:18;25.10;99.90
22185;DHT22;11258;52.516;13.318;2022-08-19T06:21:46;25.20;99.90
22185;DHT22;11258;52.516;13.318;2022-08-19T06:24:14;25.20;99.90
22185;DHT22;11258;52.516;13.318;2022-08-19T06:26:42;25.40;99.90
22185;DHT22;11258;52.516;13.318;2022-08-19T06:29:10;25.90;99.90
22185;DHT22;11258;52.516;13.318;2022-08-19T06:31:36;26.00;99.90
22185;DHT22;11258;52.516;13.318;2022-08-19T06:34:03;26.10;99.90
22185;DHT22;11258;52.516;13.318;2022-08-19T06:36:35;26.00;99.90
22185;DHT22;11258;52.516;13.318;2022-08-19T06:39:06;25.80;99.90
22185;DHT22;11258;52.516;13.318;2022-08-19T06:41:37;25.60;99.90
22185;DHT22;11258;52.516;13.318;2022-08-19T06:44:04;25.40;99.90
22185;DHT22;11258;52.516;13.318;2022-08-19T06:46:30;25.50;99.90
22185;DHT22;11258;52.516;13.318;2022-08-19T06:48:56;25.30;99.90
22185;DHT22;11258;52.516;13.318;2022-08-19T06:51:23;24.90;99.90
22185;DHT22;11258;52.516;13.318;2022-08-19T06:53:51;24.90;99.90
22185;DHT22;11258;52.516;13.318;2022-08-19T06:56:20;24.80;99.90
22185;DHT22;11258;52.516;13.318;2022-08-19T06:58:46;24.60;99.90
22185;DHT22;11258;52.516;13.318;2022-08-19T07:01:12;24.60;99.90
22185;DHT22;11258;52.516;13.318;2022-08-19T07:03:39;24.60;99.90
22185;DHT22;11258;52.516;13.318;2022-08-19T07:06:06;24.60;99.90
22185;DHT22;11258;52.516;13.318;2022-08-19T07:08:33;24.60;99.90
22185;DHT22;11258;52.516;13.318;2022-08-19T07:10:59;24.60;99.90
22185;DHT22;11258;52.516;13.318;2022-08-19T07:13:25;24.60;99.90
22185;DHT22;11258;52.516;13.318;2022-08-19T07:15:51;24.70;99.90
22185;DHT22;11258;52.516;13.318;2022-08-19T07:18:18;24.80;99.90
22185;DHT22;11258;52.516;13.318;2022-08-19T07:20:45;24.80;99.90
22185;DHT22;11258;52.516;13.318;2022-08-19T07:23:11;24.80;99.90
22185;DHT22;11258;52.516;13.318;2022-08-19T07:25:37;25.00;99.90
22185;DHT22;11258;52.516;13.318;2022-08-19T07:28:04;25.20;99.90
22185;DHT22;11258;52.516;13.318;2022-08-19T07:30:30;25.10;99.90
22185;DHT22;11258;52.516;13.318;2022-08-19T07:32:56;25.20;99.90
22185;DHT22;11258;52.516;13.318;2022-08-19T07:35:22;25.30;99.90
22185;DHT22;11258;52.516;13.318;2022-08-19T07:37:49;25.30;99.90
22185;DHT22;11258;52.516;13.318;2022-08-19T07:40:14;25.30;99.90
22185;DHT22;11258;52.516;13.318;2022-08-19T07:42:40;25.20;99.90
22185;DHT22;11258;52.516;13.318;2022-08-19T07:45:07;25.20;99.90
22185;DHT22;11258;52.516;13.318;2022-08-19T07:47:33;25.20;99.90
22185;DHT22;11258;52.516;13.318;2022-08-19T07:49:59;25.20;99.90
22185;DHT22;11258;52.516;13.318;2022-08-19T07:52:24;25.00;99.90
22185;DHT22;11258;52.516;13.318;2022-08-19T07:54:50;25.00;99.90
22185;DHT22;11258;52.516;13.318;2022-08-19T07:57:17;24.90;99.90
22185;DHT22;11258;52.516;13.318;2022-08-19T07:59:44;24.90;99.90
22185;DHT22;11258;52.516;13.318;2022-08-19T08:02:10;25.00;99.90
22185;DHT22;11258;52.516;13.318;2022-08-19T08:04:35;25.10;99.90
22185;DHT22;11258;52.516;13.318;2022-08-19T08:07:19;25.10;99.90
22185;DHT22;11258;52.516;13.318;2022-08-19T08:10:06;25.10;99.90
22185;DHT22;11258;52.516;13.318;2022-08-19T08:12:36;24.90;99.90
22185;DHT22;11258;52.516;13.318;2022-08-19T08:15:09;24.90;99.90
22185;DHT22;11258;52.516;13.318;2022-08-19T08:17:35;24.80;99.90
22185;DHT22;11258;52.516;13.318;2022-08-19T08:20:03;24.90;99.90
22185;DHT22;11258;52.516;13.318;2022-08-19T08:22:32;24.90;99.90
22185;DHT22;11258;52.516;13.318;2022-08-19T08:25:18;24.90;99.90
22185;DHT22;11258;52.516;13.318;2022-08-19T08:27:45;24.90;99.90
22185;DHT22;11258;52.516;13.318;2022-08-19T08:30:17;24.90;99.90
22185;DHT22;11258;52.516;13.318;2022-08-19T08:32:43;25.00;99.90
22185;DHT22;11258;52.516;13.318;2022-08-19T08:35:12;24.90;99.90
22185;DHT22;11258;52.516;13.318;2022-08-19T08:37:38;24.90;99.90
22185;DHT22;11258;52.516;13.318;2022-08-19T08:40:18;24.90;99.90
22185;DHT22;11258;52.516;13.318;2022-08-19T08:43:00;24.70;99.90
22185;DHT22;11258;52.516;13.318;2022-08-19T08:45:30;24.70;99.90
22185;DHT22;11258;52.516;13.318;2022-08-19T08:48:02;24.80;99.90
22185;DHT22;11258;52.516;13.318;2022-08-19T08:50:33;24.70;99.90
22185;DHT22;11258;52.516;13.318;2022-08-19T08:53:01;24.80;99.90
22185;DHT22;11258;52.516;13.318;2022-08-19T08:55:29;24.80;99.90
22185;DHT22;11258;52.516;13.318;2022-08-19T08:58:02;24.70;99.90
22185;DHT22;11258;52.516;13.318;2022-08-19T09:00:34;24.60;99.90
22185;DHT22;11258;52.516;13.318;2022-08-19T09:03:02;24.60;99.90
22185;DHT22;11258;52.516;13.318;2022-08-19T09:05:45;24.50;99.90
22185;DHT22;11258;52.516;13.318;2022-08-19T09:10:52;24.60;99.90
22185;DHT22;11258;52.516;13.318;2022-08-19T09:16:09;24.70;99.90
22185;DHT22;11258;52.516;13.318;2022-08-19T09:18:40;24.80;99.90
22185;DHT22;11258;52.516;13.318;2022-08-19T09:21:06;24.90;99.90
22185;DHT22;11258;52.516;13.318;2022-08-19T09:23:35;25.10;99.90
22185;DHT22;11258;52.516;13.318;2022-08-19T09:26:00;25.20;99.90
22185;DHT22;11258;52.516;13.318;2022-08-19T09:28:26;25.60;99.90
22185;DHT22;11258;52.516;13.318;2022-08-19T09:30:53;25.90;99.90
22185;DHT22;11258;52.516;13.318;2022-08-19T09:33:18;26.10;99.90
22185;DHT22;11258;52.516;13.318;2022-08-19T09:35:45;26.00;99.90
22185;DHT22;11258;52.516;13.318;2022-08-19T09:38:11;26.00;99.90
22185;DHT22;11258;52.516;13.318;2022-08-19T09:40:37;26.10;99.90
22185;DHT22;11258;52.516;13.318;2022-08-19T09:43:02;26.20;99.90
22185;DHT22;11258;52.516;13.318;2022-08-19T09:45:28;26.30;99.90
22185;DHT22;11258;52.516;13.318;2022-08-19T09:47:54;26.20;99.90
22185;DHT22;11258;52.516;13.318;2022-08-19T09:50:21;26.00;99.90
22185;DHT22;11258;52.516;13.318;2022-08-19T09:52:47;26.10;99.90
22185;DHT22;11258;52.516;13.318;2022-08-19T09:55:13;26.20;99.90
22185;DHT22;11258;52.516;13.318;2022-08-19T09:57:39;26.30;99.90
22185;DHT22;11258;52.516;13.318;2022-08-19T10:00:07;26.30;99.90
22185;DHT22;11258;52.516;13.318;2022-08-19T10:02:34;26.10;99.90
22185;DHT22;11258;52.516;13.318;2022-08-19T10:04:59;26.10;99.90
22185;DHT22;11258;52.516;13.318;2022-08-19T10:07:44;26.00;99.90
22185;DHT22;11258;52.516;13.318;2022-08-19T10:10:10;25.90;99.90
22185;DHT22;11258;52.516;13.318;2022-08-19T10:12:36;25.90;99.90
22185;DHT22;11258;52.516;13.318;2022-08-19T10:15:03;26.00;99.90
22185;DHT22;11258;52.516;13.318;2022-08-19T10:17:29;25.90;99.90
22185;DHT22;11258;52.516;13.318;2022-08-19T10:19:55;25.90;99.90
22185;DHT22;11258;52.516;13.318;2022-08-19T10:22:20;26.30;99.90
22185;DHT22;11258;52.516;13.318;2022-08-19T10:24:46;26.50;99.90
22185;DHT22;11258;52.516;13.318;2022-08-19T10:27:12;26.70;99.90
22185;DHT22;11258;52.516;13.318;2022-08-19T10:29:39;26.70;99.90
22185;DHT22;11258;52.516;13.318;2022-08-19T10:32:06;26.70;99.90
22185;DHT22;11258;52.516;13.318;2022-08-19T10:34:34;26.70;99.90
22185;DHT22;11258;52.516;13.318;2022-08-19T10:37:02;26.70;99.90
22185;DHT22;11258;52.516;13.318;2022-08-19T10:39:34;26.70;99.90
22185;DHT22;11258;52.516;13.318;2022-08-19T10:42:05;26.50;99.90
22185;DHT22;11258;52.516;13.318;2022-08-19T10:44:32;26.40;99.90
22185;DHT22;11258;52.516;13.318;2022-08-19T10:46:58;26.30;99.90
22185;DHT22;11258;52.516;13.318;2022-08-19T10:49:24;26.10;99.90
22185;DHT22;11258;52.516;13.318;2022-08-19T10:51:50;25.90;99.90
22185;DHT22;11258;52.516;13.318;2022-08-19T10:54:33;25.80;99.90
22185;DHT22;11258;52.516;13.318;2022-08-19T10:57:18;25.60;99.90
22185;DHT22;11258;52.516;13.318;2022-08-19T10:59:43;25.50;99.90
22185;DHT22;11258;52.516;13.318;2022-08-19T11:02:10;25.30;99.90
22185;DHT22;11258;52.516;13.318;2022-08-19T11:04:38;25.20;99.90
22185;DHT22;11258;52.516;13.318;2022-08-19T11:07:05;25.20;99.90
22185;DHT22;11258;52.516;13.318;2022-08-19T11:09:31;25.20;99.90
22185;DHT22;11258;52.516;13.318;2022-08-19T11:12:03;25.20;99.90
22185;DHT22;11258;52.516;13.318;2022-08-19T11:14:28;25.20;99.90
22185;DHT22;11258;52.516;13.318;2022-08-19T11:16:58;25.10;99.90
22185;DHT22;11258;52.516;13.318;2022-08-19T11:19:23;25.10;99.90
22185;DHT22;11258;52.516;13.318;2022-08-19T11:21:50;25.20;99.90
22185;DHT22;11258;52.516;13.318;2022-08-19T11:24:22;25.30;99.90
22185;DHT22;11258;52.516;13.318;2022-08-19T11:26:50;25.40;99.90
22185;DHT22;11258;52.516;13.318;2022-08-19T11:29:19;25.30;99.90
22185;DHT22;11258;52.516;13.318;2022-08-19T11:31:47;25.30;99.90
22185;DHT22;11258;52.516;13.318;2022-08-19T11:34:16;25.30;99.90
22185;DHT22;11258;52.516;13.318;2022-08-19T11:36:45;25.30;99.90
22185;DHT22;11258;52.516;13.318;2022-08-19T11:39:13;25.30;99.90
22185;DHT22;11258;52.516;13.318;2022-08-19T11:41:40;25.30;99.90
22185;DHT22;11258;52.516;13.318;2022-08-19T11:44:06;25.30;99.90
22185;DHT22;11258;52.516;13.318;2022-08-19T11:46:34;25.20;99.90
22185;DHT22;11258;52.516;13.318;2022-08-19T11:49:00;25.00;99.90
22185;DHT22;11258;52.516;13.318;2022-08-19T11:51:29;25.00;99.90
22185;DHT22;11258;52.516;13.318;2022-08-19T11:53:56;25.00;99.90
22185;DHT22;11258;52.516;13.318;2022-08-19T11:56:22;25.00;99.90
22185;DHT22;11258;52.516;13.318;2022-08-19T11:58:48;25.00;99.90
22185;DHT22;11258;52.516;13.318;2022-08-19T12:01:17;25.00;99.90
22185;DHT22;11258;52.516;13.318;2022-08-19T12:03:45;25.10;99.90
22185;DHT22;11258;52.516;13.318;2022-08-19T12:06:14;25.20;99.90
22185;DHT22;11258;52.516;13.318;2022-08-19T12:08:41;25.40;99.90
22185;DHT22;11258;52.516;13.318;2022-08-19T12:11:08;25.50;99.90
22185;DHT22;11258;52.516;13.318;2022-08-19T12:13:35;25.40;99.90
22185;DHT22;11258;52.516;13.318;2022-08-19T12:16:10;25.40;99.90
22185;DHT22;11258;52.516;13.318;2022-08-19T12:18:40;25.50;99.90
22185;DHT22;11258;52.516;13.318;2022-08-19T12:21:09;25.30;99.90
22185;DHT22;11258;52.516;13.318;2022-08-19T12:23:36;25.30;99.90
22185;DHT22;11258;52.516;13.318;2022-08-19T12:26:03;25.30;99.90
22185;DHT22;11258;52.516;13.318;2022-08-19T12:28:29;25.30;99.90
22185;DHT22;11258;52.516;13.318;2022-08-19T12:30:56;25.40;99.90
22185;DHT22;11258;52.516;13.318;2022-08-19T12:33:22;25.40;99.90
22185;DHT22;11258;52.516;13.318;2022-08-19T12:35:50;25.30;99.90
22185;DHT22;11258;52.516;13.318;2022-08-19T12:38:16;25.50;99.90
22185;DHT22;11258;52.516;13.318;2022-08-19T12:40:45;25.80;99.90
22185;DHT22;11258;52.516;13.318;2022-08-19T12:43:11;26.20;99.90
22185;DHT22;11258;52.516;13.318;2022-08-19T12:45:37;26.50;99.90
22185;DHT22;11258;52.516;13.318;2022-08-19T12:48:03;26.70;99.90
22185;DHT22;11258;52.516;13.318;2022-08-19T12:50:29;26.70;99.90
22185;DHT22;11258;52.516;13.318;2022-08-19T12:52:56;26.80;99.90
22185;DHT22;11258;52.516;13.318;2022-08-19T12:55:22;26.80;99.90
22185;DHT22;11258;52.516;13.318;2022-08-19T12:57:48;26.90;99.90
22185;DHT22;11258;52.516;13.318;2022-08-19T13:00:19;26.80;99.90
22185;DHT22;11258;52.516;13.318;2022-08-19T13:02:48;27.00;99.90
22185;DHT22;11258;52.516;13.318;2022-08-19T13:05:18;27.10;99.90
22185;DHT22;11258;52.516;13.318;2022-08-19T13:07:46;27.20;99.90
22185;DHT22;11258;52.516;13.318;2022-08-19T13:10:14;27.30;99.90
22185;DHT22;11258;52.516;13.318;2022-08-19T13:12:41;27.10;99.90
22185;DHT22;11258;52.516;13.318;2022-08-19T13:15:07;27.10;99.90
22185;DHT22;11258;52.516;13.318;2022-08-19T13:17:34;26.90;99.90
22185;DHT22;11258;52.516;13.318;2022-08-19T13:19:59;26.70;99.90
22185;DHT22;11258;52.516;13.318;2022-08-19T13:22:25;26.50;99.90
22185;DHT22;11258;52.516;13.318;2022-08-19T13:24:50;26.30;99.90
22185;DHT22;11258;52.516;13.318;2022-08-19T13:27:16;26.10;99.90
22185;DHT22;11258;52.516;13.318;2022-08-19T13:29:42;26.10;99.90
22185;DHT22;11258;52.516;13.318;2022-08-19T13:32:26;26.10;99.90
22185;DHT22;11258;52.516;13.318;2022-08-19T13:35:11;26.10;99.90
22185;DHT22;11258;52.516;13.318;2022-08-19T13:37:37;26.10;99.90
22185;DHT22;11258;52.516;13.318;2022-08-19T13:40:17;26.00;99.90
22185;DHT22;11258;52.516;13.318;2022-08-19T13:42:48;26.00;99.90
22185;DHT22;11258;52.516;13.318;2022-08-19T13:45:17;25.90;99.90
22185;DHT22;11258;52.516;13.318;2022-08-19T13:47:49;25.90;99.90
22185;DHT22;11258;52.516;13.318;2022-08-19T13:50:18;25.90;99.90
22185;DHT22;11258;52.516;13.318;2022-08-19T13:52:45;26.00;99.90
22185;DHT22;11258;52.516;13.318;2022-08-19T13:55:12;26.10;99.90
22185;DHT22;11258;52.516;13.318;2022-08-19T13:57:38;26.30;99.90
22185;DHT22;11258;52.516;13.318;2022-08-19T14:00:06;26.40;99.90
22185;DHT22;11258;52.516;13.318;2022-08-19T14:02:34;26.40;99.90
22185;DHT22;11258;52.516;13.318;2022-08-19T14:05:00;26.40;99.90
22185;DHT22;11258;52.516;13.318;2022-08-19T14:07:26;26.20;99.90
22185;DHT22;11258;52.516;13.318;2022-08-19T14:09:51;26.20;99.90
22185;DHT22;11258;52.516;13.318;2022-08-19T14:12:21;26.10;99.90
22185;DHT22;11258;52.516;13.318;2022-08-19T14:14:46;26.00;99.90
22185;DHT22;11258;52.516;13.318;2022-08-19T14:17:12;26.10;99.90
22185;DHT22;11258;52.516;13.318;2022-08-19T14:19:38;26.00;99.90
22185;DHT22;11258;52.516;13.318;2022-08-19T14:22:04;26.10;99.90
22185;DHT22;11258;52.516;13.318;2022-08-19T14:24:30;26.20;99.90
22185;DHT22;11258;52.516;13.318;2022-08-19T14:26:57;26.20;99.90
22185;DHT22;11258;52.516;13.318;2022-08-19T14:29:23;26.30;99.90
22185;DHT22;11258;52.516;13.318;2022-08-19T14:31:49;26.30;99.90
22185;DHT22;11258;52.516;13.318;2022-08-19T14:34:15;26.20;99.90
22185;DHT22;11258;52.516;13.318;2022-08-19T14:36:40;25.90;99.90
22185;DHT22;11258;52.516;13.318;2022-08-19T14:39:07;25.90;99.90
22185;DHT22;11258;52.516;13.318;2022-08-19T14:43:59;25.80;99.90
22185;DHT22;11258;52.516;13.318;2022-08-19T14:46:28;25.80;99.90
22185;DHT22;11258;52.516;13.318;2022-08-19T14:48:54;25.70;99.90
22185;DHT22;11258;52.516;13.318;2022-08-19T14:51:22;25.70;99.90
22185;DHT22;11258;52.516;13.318;2022-08-19T14:53:48;25.60;99.90
22185;DHT22;11258;52.516;13.318;2022-08-19T14:56:17;25.50;99.90
22185;DHT22;11258;52.516;13.318;2022-08-19T14:58:43;25.60;99.90
22185;DHT22;11258;52.516;13.318;2022-08-19T15:01:09;25.70;99.90
22185;DHT22;11258;52.516;13.318;2022-08-19T15:03:35;25.70;99.90
22185;DHT22;11258;52.516;13.318;2022-08-19T15:06:03;25.70;99.90
22185;DHT22;11258;52.516;13.318;2022-08-19T15:08:31;25.50;99.90
22185;DHT22;11258;52.516;13.318;2022-08-19T15:10:58;25.60;99.90
22185;DHT22;11258;52.516;13.318;2022-08-19T15:13:25;25.50;99.90
22185;DHT22;11258;52.516;13.318;2022-08-19T15:15:51;25.50;99.90
22185;DHT22;11258;52.516;13.318;2022-08-19T15:18:17;25.40;99.90
22185;DHT22;11258;52.516;13.318;2022-08-19T15:20:46;25.40;99.90
22185;DHT22;11258;52.516;13.318;2022-08-19T15:23:16;25.40;99.90
22185;DHT22;11258;52.516;13.318;2022-08-19T15:25:42;25.20;99.90
22185;DHT22;11258;52.516;13.318;2022-08-19T15:28:09;25.20;99.90
22185;DHT22;11258;52.516;13.318;2022-08-19T15:30:39;25.10;99.90
22185;DHT22;11258;52.516;13.318;2022-08-19T15:33:05;24.90;99.90
22185;DHT22;11258;52.516;13.318;2022-08-19T15:35:31;24.90;99.90